Van Tassell, WY

1:14 AM MDT on August 28, 2014 (GMT -0600)
Chadron Municipal | Change Station
CLOSE
Current Station
Airport
Location: Chadron,
Elevation: 3297 ft
Nearby Weather Stations

Elev 3297 ft 42.84 °N, 103.10 °W | Updated 21 minutes ago

Overcast
Overcast
64 °F
Feels Like 64 °F
N
0
Wind Variable Wind from North

Today
High -- | Low -- °F
--% Chance of Precip.
Yesterday
High -- | Low -- °F
Precip. -- in
6:17 AM 7:37 PM
Waxing Crescent, 7% visible
Pressure 29.96 in
Visibility 10.0 miles
Clouds Mostly Cloudy 500 ft
Overcast 1400 ft
Dew Point 62 °F
Humidity 93%
Rainfall 0.00 in
Snow Depth Not available.
UV 0 out of 12
Pollen 8.10 out of 12
Air Quality Not available.
Flu Activity Not available.
METAR KCDR 280653Z AUTO 00000KT 10SM BKN005 OVC014 18/17 A3001 RMK AO2 SLP143 T01780167 402440156

More Conditions Fewer Conditions

Pressure 29.96 in
Visibility 10.0 miles
Clouds Mostly Cloudy 500 ft
Overcast 1400 ft
Dew Point 62 °F
Humidity 93%
Rainfall 0.00 in
Snow Depth Not available.
UV 0 out of 12
Pollen 8.10 out of 12
Air Quality Not available.
Flu Activity Not available.
METAR KCDR 280653Z AUTO 00000KT 10SM BKN005 OVC014 18/17 A3001 RMK AO2 SLP143 T01780167 402440156

More Conditions Fewer Conditions

10-Day Weather Forecast

Almanac

Astronomy

Aug. 28, 2014 Rise Set
Actual Time 6:17 AM MDT 7:37 PM MDT
Civil Twilight 5:47 AM MDT 8:06 PM MDT
Nautical Twilight 5:12 AM MDT 8:41 PM MDT
Astronomical Twilight 4:34 AM MDT 9:19 PM MDT
Moon 9:16 AM MDT 8:57 PM MDT
Length of Visible Light 14h 19m
Length of Day
13h 20m
Tomorrow will be 2m 45s shorter.
Waxing Crescent, 7% of the Moon is Illuminated
Today
Waxing Crescent
Sep 2
First Quarter
Sep 8
Full
Sep 15
Last Quarter
Sep 24
New

Today's Extremes

State Highs State Lows

Community

WunderPhotos

Upload Photos

1,747,912 photos uploaded!

Nearby

Snow Depth

Station Depth Elevation
Reno Hill 0 in 8500 ft
Casper Mountain 1 in 7850 ft
Crow Creek 0 in 8330 ft
Cole Canyon 0 in 5910 ft
Sand Lake 0 in 10050 ft

Earthquake Activity

City Distance Mag. Time & Date
No recent earthquake activity has been reported nearby.
Minimum magnitude displayed is 2.5.

Coastal Water Temperatures

Place Temperature
No Stations Reporting

Nearby Weather Stations